Time;durP1;ratioP1;P1;durP2;ratioP2;P2;SDS_P1;SDS_P2;PMS_P1;PMS_P2;Temp;Humidity;BMP_temperature;BMP_pressure;BME280_temperature;BME280_humidity;BME280_pressure;Samples;Min_cycle;Max_cycle;Signal;HPM_P1;HPM_P2
2023/07/21 00:00:18;;;;;;;0.40;0.40;;;19.50;66.20;;;;;;5075498;28;20037;-58
2023/07/21 00:02:45;;;;;;;0.60;0.50;;;19.50;66.10;;;;;;5074726;28;20028;-58
2023/07/21 00:05:11;;;;;;;0.40;0.40;;;19.50;66.10;;;;;;5082782;28;20036;-58
2023/07/21 00:07:37;;;;;;;0.40;0.30;;;19.50;66.10;;;;;;5084323;28;20020;-58
2023/07/21 00:10:07;;;;;;;0.40;0.40;;;19.50;66.00;;;;;;5076071;28;20024;-58
2023/07/21 00:12:42;;;;;;;0.43;0.43;;;19.50;65.80;;;;;;5074154;28;20029;-59
2023/07/21 00:15:10;;;;;;;0.55;0.55;;;19.50;65.80;;;;;;5079308;28;20055;-60
2023/07/21 00:17:37;;;;;;;0.47;0.47;;;19.40;65.70;;;;;;5069454;28;20044;-60
2023/07/21 00:20:12;;;;;;;0.95;0.70;;;19.40;65.70;;;;;;5074137;28;20067;-63
2023/07/21 00:22:41;;;;;;;0.50;0.50;;;19.40;65.50;;;;;;5077001;28;20025;-64
2023/07/21 00:25:11;;;;;;;0.40;0.40;;;19.40;65.50;;;;;;5080282;28;20356;-63
2023/07/21 00:27:38;;;;;;;0.60;0.47;;;19.40;65.50;;;;;;5076303;28;20030;-63
2023/07/21 00:30:07;;;;;;;0.75;0.75;;;19.40;65.60;;;;;;5075067;28;20478;-63
2023/07/21 00:32:38;;;;;;;0.40;0.40;;;19.40;65.60;;;;;;5063502;28;20135;-63
2023/07/21 00:35:08;;;;;;;0.75;0.60;;;19.40;65.60;;;;;;5071658;28;20131;-60
2023/07/21 00:37:38;;;;;;;0.57;0.50;;;19.40;65.50;;;;;;5063961;28;20027;-60
2023/07/21 00:40:05;;;;;;;0.55;0.55;;;19.40;65.50;;;;;;5081948;28;20089;-60
2023/07/21 00:42:31;;;;;;;0.90;0.75;;;19.30;65.50;;;;;;5080344;28;20036;-60
2023/07/21 00:44:57;;;;;;;0.93;0.40;;;19.30;65.50;;;;;;5074329;28;20041;-60
2023/07/21 00:47:28;;;;;;;0.30;0.30;;;19.30;65.50;;;;;;5076015;28;20035;-60
2023/07/21 00:49:54;;;;;;;0.50;0.50;;;19.30;65.50;;;;;;5073345;28;20028;-59
2023/07/21 00:52:20;;;;;;;0.40;0.40;;;19.20;65.50;;;;;;5070942;28;20025;-59
2023/07/21 00:54:47;;;;;;;0.47;0.40;;;19.30;65.50;;;;;;5078273;28;20023;-59
2023/07/21 00:57:15;;;;;;;0.77;0.68;;;19.20;65.50;;;;;;5077741;28;20029;-59
2023/07/21 00:59:40;;;;;;;0.93;0.82;;;19.20;65.60;;;;;;5075110;28;20032;-60
2023/07/21 01:02:06;;;;;;;0.43;0.43;;;19.10;65.50;;;;;;5073990;28;20021;-60
2023/07/21 01:04:33;;;;;;;0.40;0.40;;;19.10;65.60;;;;;;5075326;28;20388;-60
2023/07/21 01:07:03;;;;;;;2.42;0.40;;;19.10;65.60;;;;;;5078588;28;20443;-60
2023/07/21 01:09:30;;;;;;;0.85;0.50;;;19.10;65.70;;;;;;5069850;28;20020;-60
2023/07/21 01:11:56;;;;;;;0.40;0.40;;;19.10;65.70;;;;;;5077857;28;20020;-60
2023/07/21 01:14:21;;;;;;;0.85;0.60;;;19.00;65.70;;;;;;5085263;28;20036;-60
2023/07/21 01:16:48;;;;;;;0.68;0.50;;;19.00;65.80;;;;;;5083819;28;20040;-59
2023/07/21 01:19:15;;;;;;;0.85;0.60;;;18.90;65.80;;;;;;5085798;28;20058;-59
2023/07/21 01:21:55;;;;;;;0.50;0.50;;;18.90;65.90;;;;;;5074572;28;20033;-60
2023/07/21 01:24:41;;;;;;;0.82;0.47;;;18.90;65.90;;;;;;5069552;28;20020;-60
2023/07/21 01:27:09;;;;;;;0.40;0.40;;;18.90;66.00;;;;;;5083391;28;20028;-59
2023/07/21 01:29:37;;;;;;;0.50;0.50;;;18.80;66.10;;;;;;5072982;28;20033;-60
2023/07/21 01:32:06;;;;;;;0.30;0.30;;;18.80;66.20;;;;;;5080374;28;20039;-60
2023/07/21 01:34:33;;;;;;;0.47;0.47;;;18.70;66.30;;;;;;5069482;28;20032;-58
2023/07/21 01:37:01;;;;;;;0.40;0.30;;;18.70;66.30;;;;;;5083992;28;20037;-59
2023/07/21 01:39:29;;;;;;;0.75;0.75;;;18.70;66.40;;;;;;5074396;28;20090;-58
2023/07/21 01:41:55;;;;;;;0.40;0.40;;;18.70;66.50;;;;;;5078232;28;20562;-59
2023/07/21 01:44:22;;;;;;;0.82;0.65;;;18.60;66.50;;;;;;5079126;28;20023;-57
2023/07/21 01:46:48;;;;;;;0.50;0.38;;;18.60;66.60;;;;;;5078786;28;20024;-58
2023/07/21 01:49:15;;;;;;;0.40;0.40;;;18.60;66.60;;;;;;5077819;28;20538;-59
2023/07/21 01:51:43;;;;;;;1.13;0.70;;;18.60;66.50;;;;;;5073241;28;20035;-60
2023/07/21 01:54:40;;;;;;;0.50;0.50;;;18.60;66.60;;;;;;5085105;28;20036;-60
2023/07/21 01:57:08;;;;;;;0.63;0.52;;;18.60;66.70;;;;;;5054943;28;20403;-58
2023/07/21 01:59:34;;;;;;;0.30;0.30;;;18.50;67.00;;;;;;5079230;28;20027;-58
2023/07/21 02:02:00;;;;;;;0.63;0.50;;;18.40;67.10;;;;;;5077972;28;20270;-59
2023/07/21 02:04:26;;;;;;;0.60;0.50;;;18.40;67.20;;;;;;5077926;28;20032;-58
2023/07/21 02:06:52;;;;;;;1.48;0.43;;;18.40;67.30;;;;;;5073819;28;20031;-59
2023/07/21 02:09:20;;;;;;;0.32;0.32;;;18.40;67.30;;;;;;5080328;28;20044;-60
2023/07/21 02:11:48;;;;;;;0.60;0.60;;;18.30;67.30;;;;;;5076695;28;20031;-60
2023/07/21 02:14:14;;;;;;;0.30;0.30;;;18.30;67.40;;;;;;5077833;28;20032;-60
2023/07/21 02:16:40;;;;;;;0.50;0.50;;;18.20;67.50;;;;;;5071661;28;20052;-60
2023/07/21 02:19:06;;;;;;;0.50;0.50;;;18.20;67.50;;;;;;5075305;28;20017;-60
2023/07/21 02:21:35;;;;;;;1.05;0.70;;;18.20;67.60;;;;;;5075812;28;20428;-60
2023/07/21 02:24:01;;;;;;;1.95;0.55;;;18.20;67.50;;;;;;5070030;28;20024;-58
2023/07/21 02:26:27;;;;;;;0.50;0.50;;;18.10;67.50;;;;;;5078162;28;20024;-58
2023/07/21 02:28:52;;;;;;;0.30;0.30;;;18.10;67.60;;;;;;5067971;28;20422;-60
2023/07/21 02:31:21;;;;;;;0.85;0.70;;;18.10;67.70;;;;;;5053622;28;20047;-58
2023/07/21 02:33:47;;;;;;;0.70;0.60;;;18.00;67.70;;;;;;5075483;28;20467;-58
2023/07/21 02:36:13;;;;;;;0.77;0.60;;;18.00;67.80;;;;;;5075905;28;20028;-58
2023/07/21 02:38:39;;;;;;;1.20;0.50;;;18.00;67.90;;;;;;5077809;28;20687;-58
2023/07/21 02:41:05;;;;;;;0.35;0.35;;;17.90;68.00;;;;;;5078299;28;20043;-58
2023/07/21 02:43:35;;;;;;;0.50;0.50;;;17.90;68.00;;;;;;5078712;28;20028;-58
2023/07/21 02:46:01;;;;;;;0.60;0.50;;;17.90;68.00;;;;;;5067258;28;20063;-60
2023/07/21 02:48:26;;;;;;;0.40;0.40;;;17.80;68.10;;;;;;5067647;28;20488;-60
2023/07/21 02:50:55;;;;;;;0.47;0.47;;;17.80;68.20;;;;;;5075987;28;20073;-60
2023/07/21 02:53:21;;;;;;;0.73;0.50;;;17.80;68.40;;;;;;5075038;28;20079;-60
2023/07/21 02:55:47;;;;;;;0.32;0.32;;;17.70;68.40;;;;;;5079983;28;20020;-60
2023/07/21 02:58:16;;;;;;;0.47;0.47;;;17.70;68.40;;;;;;5070264;28;20036;-60
2023/07/21 03:00:42;;;;;;;0.85;0.40;;;17.70;68.40;;;;;;5075367;28;20449;-60
2023/07/21 03:03:14;;;;;;;0.52;0.52;;;17.60;68.50;;;;;;5081121;28;20032;-60
2023/07/21 03:05:41;;;;;;;0.30;0.30;;;17.60;69.30;;;;;;5076419;28;20021;-60
2023/07/21 03:08:07;;;;;;;0.50;0.40;;;17.60;68.80;;;;;;5083838;28;20024;-60
2023/07/21 03:10:32;;;;;;;0.50;0.50;;;17.50;68.90;;;;;;5076854;28;20103;-60
2023/07/21 03:12:58;;;;;;;0.30;0.30;;;17.50;69.10;;;;;;5075545;28;20444;-60
2023/07/21 03:15:24;;;;;;;0.68;0.60;;;17.40;69.10;;;;;;5081444;28;20035;-60
2023/07/21 03:17:49;;;;;;;0.40;0.40;;;17.40;69.30;;;;;;5078593;28;20085;-60
2023/07/21 03:20:15;;;;;;;0.80;0.45;;;17.30;69.40;;;;;;5076504;28;20040;-60
2023/07/21 03:22:44;;;;;;;0.50;0.40;;;17.30;69.60;;;;;;5072538;28;20336;-60
2023/07/21 03:25:12;;;;;;;1.05;0.88;;;17.30;69.70;;;;;;5075817;28;20044;-60
2023/07/21 03:27:41;;;;;;;0.40;0.40;;;17.20;69.90;;;;;;5082725;28;20528;-60
2023/07/21 03:30:12;;;;;;;0.60;0.60;;;17.20;70.10;;;;;;5073859;28;20479;-60
2023/07/21 03:32:38;;;;;;;0.93;0.63;;;17.10;70.00;;;;;;5076626;28;20024;-58
2023/07/21 03:35:05;;;;;;;0.77;0.65;;;17.10;70.10;;;;;;5077015;28;20039;-59
2023/07/21 03:37:34;;;;;;;0.47;0.40;;;17.10;70.30;;;;;;5065972;28;20348;-59
2023/07/21 03:40:01;;;;;;;0.50;0.50;;;17.10;70.40;;;;;;5074454;28;20028;-58
2023/07/21 03:42:27;;;;;;;2.33;0.47;;;17.00;70.50;;;;;;5081286;28;20536;-57
2023/07/21 03:44:52;;;;;;;1.08;0.57;;;17.00;70.50;;;;;;5084178;28;20024;-58
2023/07/21 03:47:19;;;;;;;0.50;0.50;;;17.00;70.60;;;;;;5081571;28;20040;-59
2023/07/21 03:49:46;;;;;;;0.50;0.50;;;17.00;70.70;;;;;;5083056;28;20406;-59
2023/07/21 03:52:13;;;;;;;0.40;0.40;;;16.90;70.60;;;;;;5085027;28;20036;-58
2023/07/21 03:54:40;;;;;;;0.22;0.22;;;16.90;70.70;;;;;;5079075;28;20025;-58
2023/07/21 03:57:06;;;;;;;1.08;0.50;;;16.90;70.80;;;;;;5076162;28;20474;-60
2023/07/21 03:59:32;;;;;;;2.60;0.47;;;16.80;71.50;;;;;;5084926;28;20066;-60
2023/07/21 04:01:58;;;;;;;0.73;0.63;;;16.80;70.90;;;;;;5083217;28;20024;-60
2023/07/21 04:04:24;;;;;;;0.77;0.77;;;16.80;70.90;;;;;;5084024;28;20023;-60
2023/07/21 04:06:49;;;;;;;0.70;0.68;;;16.80;71.00;;;;;;5077511;28;20399;-60
2023/07/21 04:09:15;;;;;;;0.40;0.40;;;16.80;71.00;;;;;;5076069;28;20103;-60
2023/07/21 04:11:42;;;;;;;0.75;0.68;;;16.80;71.10;;;;;;5079877;28;20072;-60
2023/07/21 04:14:07;;;;;;;0.57;0.40;;;16.80;71.10;;;;;;5080032;28;20024;-60
2023/07/21 04:16:34;;;;;;;0.30;0.30;;;16.80;71.10;;;;;;5073626;28;20048;-60
2023/07/21 04:19:00;;;;;;;0.50;0.40;;;16.80;71.20;;;;;;5073411;28;20483;-60
2023/07/21 04:21:25;;;;;;;1.40;0.68;;;16.80;71.20;;;;;;5078366;28;20028;-60
2023/07/21 04:23:51;;;;;;;0.50;0.50;;;16.80;71.30;;;;;;5076892;28;20040;-60
2023/07/21 04:26:17;;;;;;;0.50;0.40;;;16.70;71.30;;;;;;5074989;28;20036;-60
2023/07/21 04:28:44;;;;;;;0.73;0.68;;;16.70;71.40;;;;;;5074685;28;20578;-60
2023/07/21 04:31:10;;;;;;;0.38;0.38;;;16.80;71.50;;;;;;5075154;28;20398;-60
2023/07/21 04:33:36;;;;;;;4.28;0.90;;;16.80;71.60;;;;;;5076008;28;20028;-58
2023/07/21 04:36:02;;;;;;;0.85;0.65;;;16.80;71.50;;;;;;5072594;28;20090;-58
2023/07/21 04:38:28;;;;;;;0.88;0.88;;;16.80;71.60;;;;;;5074617;28;20062;-58
2023/07/21 04:40:54;;;;;;;2.42;0.57;;;16.90;71.80;;;;;;5077097;28;20028;-59
2023/07/21 04:43:20;;;;;;;1.85;0.50;;;16.90;71.70;;;;;;5072505;28;20087;-58
2023/07/21 04:45:46;;;;;;;0.75;0.50;;;17.00;71.80;;;;;;5069965;28;20111;-58
2023/07/21 04:48:12;;;;;;;0.45;0.45;;;17.10;71.90;;;;;;5078689;28;20123;-58
2023/07/21 04:50:40;;;;;;;0.40;0.40;;;17.10;71.90;;;;;;5072804;28;20036;-58
2023/07/21 04:53:11;;;;;;;0.45;0.43;;;17.20;71.90;;;;;;5081854;28;20020;-58
2023/07/21 04:55:38;;;;;;;0.40;0.40;;;17.30;71.90;;;;;;5079715;28;20077;-58
2023/07/21 04:58:05;;;;;;;0.57;0.57;;;17.40;71.70;;;;;;5079277;28;20043;-60
2023/07/21 05:00:32;;;;;;;1.05;0.60;;;17.40;71.60;;;;;;5076614;28;20072;-60
2023/07/21 05:02:58;;;;;;;0.90;0.30;;;17.50;71.40;;;;;;5074467;28;20104;-60
2023/07/21 05:05:23;;;;;;;0.60;0.50;;;17.60;71.30;;;;;;5075669;28;20439;-61
2023/07/21 05:07:49;;;;;;;0.63;0.43;;;17.60;71.10;;;;;;5075143;28;20371;-61
2023/07/21 05:10:15;;;;;;;0.52;0.50;;;17.70;70.90;;;;;;5071903;28;20040;-60
2023/07/21 05:12:42;;;;;;;0.60;0.50;;;17.80;70.80;;;;;;5080206;28;20372;-60
2023/07/21 05:15:08;;;;;;;0.68;0.50;;;17.80;70.80;;;;;;5074832;28;20376;-60
2023/07/21 05:17:34;;;;;;;0.43;0.43;;;17.80;70.70;;;;;;5071836;28;20033;-60
2023/07/21 05:20:00;;;;;;;0.85;0.68;;;17.90;70.80;;;;;;5070930;28;20055;-60
2023/07/21 05:22:26;;;;;;;0.45;0.45;;;17.90;70.90;;;;;;5082230;28;20071;-60
2023/07/21 05:24:52;;;;;;;0.50;0.50;;;17.80;70.90;;;;;;5070245;28;20036;-60
2023/07/21 05:27:19;;;;;;;0.60;0.60;;;17.90;71.10;;;;;;5090969;28;20032;-59
2023/07/21 05:29:45;;;;;;;1.08;0.63;;;17.90;71.00;;;;;;5069409;28;20506;-58
2023/07/21 05:32:10;;;;;;;6.13;0.57;;;17.90;71.00;;;;;;5073066;28;20086;-59
2023/07/21 05:34:36;;;;;;;0.93;0.63;;;17.90;71.20;;;;;;5079178;28;20458;-59
2023/07/21 05:37:02;;;;;;;0.60;0.60;;;17.90;71.20;;;;;;5067086;28;20386;-59
2023/07/21 05:39:29;;;;;;;0.40;0.40;;;18.00;71.30;;;;;;5071595;28;20425;-63
2023/07/21 05:41:58;;;;;;;0.70;0.70;;;18.00;71.30;;;;;;5067736;28;20043;-61
2023/07/21 05:44:25;;;;;;;1.13;1.02;;;18.10;71.30;;;;;;5070371;28;20055;-61
2023/07/21 05:46:50;;;;;;;0.77;0.68;;;18.20;71.20;;;;;;5074589;28;20051;-61
2023/07/21 05:49:16;;;;;;;0.50;0.45;;;18.30;71.00;;;;;;5080209;28;20071;-61
2023/07/21 05:51:43;;;;;;;0.85;0.77;;;18.40;70.70;;;;;;5072482;28;20036;-62
2023/07/21 05:54:08;;;;;;;0.73;0.60;;;18.50;70.70;;;;;;5065563;28;20033;-58
2023/07/21 05:56:34;;;;;;;1.42;0.77;;;18.60;70.60;;;;;;5069015;28;20066;-59
2023/07/21 05:59:00;;;;;;;0.82;0.82;;;18.70;70.40;;;;;;5067461;28;20078;-59
2023/07/21 06:01:27;;;;;;;0.88;0.50;;;18.80;70.20;;;;;;5076916;28;20036;-59
2023/07/21 06:03:52;;;;;;;1.50;0.98;;;18.80;70.00;;;;;;5076462;28;20031;-60
2023/07/21 06:06:18;;;;;;;0.50;0.50;;;19.00;69.60;;;;;;5075998;28;20031;-58
2023/07/21 06:08:44;;;;;;;0.60;0.50;;;19.00;69.70;;;;;;5071760;28;20028;-58
2023/07/21 06:11:10;;;;;;;1.25;0.75;;;19.20;69.00;;;;;;5067560;28;20039;-59
2023/07/21 06:13:35;;;;;;;1.20;0.65;;;19.20;68.80;;;;;;5070964;28;20040;-60
2023/07/21 06:16:01;;;;;;;0.85;0.82;;;19.20;68.30;;;;;;5080792;28;20044;-59
2023/07/21 06:18:27;;;;;;;0.55;0.55;;;19.30;68.30;;;;;;5064552;28;20028;-58
2023/07/21 06:20:53;;;;;;;0.73;0.60;;;19.30;68.10;;;;;;5071279;28;20063;-64
2023/07/21 06:23:19;;;;;;;0.52;0.52;;;19.40;68.10;;;;;;5072021;28;20028;-62
2023/07/21 06:25:45;;;;;;;0.88;0.60;;;19.50;68.00;;;;;;5073301;28;20035;-62
2023/07/21 06:28:12;;;;;;;0.77;0.60;;;19.60;67.80;;;;;;5068937;28;20440;-62
2023/07/21 06:30:37;;;;;;;0.95;0.60;;;19.60;67.50;;;;;;5071965;28;20028;-63
2023/07/21 06:33:05;;;;;;;0.30;0.30;;;19.60;67.40;;;;;;5066223;28;20029;-62
2023/07/21 06:35:33;;;;;;;0.60;0.60;;;19.70;67.30;;;;;;5075407;28;20404;-63
2023/07/21 06:37:59;;;;;;;0.50;0.50;;;19.70;67.20;;;;;;5061721;28;20024;-62
2023/07/21 06:40:25;;;;;;;0.70;0.70;;;19.80;67.20;;;;;;5063476;28;20077;-62
2023/07/21 06:42:51;;;;;;;0.73;0.40;;;19.80;66.90;;;;;;5074746;28;20043;-58
2023/07/21 06:45:16;;;;;;;0.40;0.40;;;19.80;67.00;;;;;;5062535;28;20032;-58
2023/07/21 06:47:42;;;;;;;0.60;0.52;;;20.00;66.90;;;;;;5065318;28;20040;-59
2023/07/21 06:50:09;;;;;;;2.60;0.80;;;20.00;66.10;;;;;;5071705;28;20032;-62
2023/07/21 06:52:34;;;;;;;1.38;0.77;;;20.10;66.00;;;;;;5074323;28;20020;-63
2023/07/21 06:55:01;;;;;;;0.65;0.60;;;20.20;65.60;;;;;;5071285;28;20035;-59
2023/07/21 06:57:27;;;;;;;0.40;0.40;;;20.30;65.60;;;;;;5076021;28;20028;-59
2023/07/21 06:59:53;;;;;;;0.40;0.40;;;20.40;65.30;;;;;;5067520;28;20077;-63
2023/07/21 07:02:18;;;;;;;0.50;0.50;;;20.40;64.90;;;;;;5069599;28;20032;-63
2023/07/21 07:04:44;;;;;;;3.22;0.70;;;20.40;64.00;;;;;;5077373;28;20769;-63
2023/07/21 07:07:10;;;;;;;0.32;0.32;;;20.50;64.00;;;;;;5080379;28;20032;-62
2023/07/21 07:09:36;;;;;;;0.85;0.70;;;20.60;64.00;;;;;;5070206;28;20035;-62
2023/07/21 07:12:03;;;;;;;0.63;0.50;;;20.70;63.60;;;;;;5075162;28;20040;-63
2023/07/21 07:14:30;;;;;;;0.70;0.70;;;20.80;62.70;;;;;;5066642;28;20108;-59
2023/07/21 07:16:55;;;;;;;1.13;0.95;;;20.80;62.10;;;;;;5067506;28;20036;-60
2023/07/21 07:19:21;;;;;;;1.48;0.85;;;20.90;62.10;;;;;;5068666;28;20040;-62
2023/07/21 07:21:47;;;;;;;0.93;0.55;;;20.90;61.90;;;;;;5067008;28;20032;-59
2023/07/21 07:24:13;;;;;;;0.98;0.47;;;21.00;61.90;;;;;;5072831;28;20146;-62
2023/07/21 07:26:38;;;;;;;0.80;0.60;;;21.00;61.50;;;;;;5066863;28;20115;-62
2023/07/21 07:29:04;;;;;;;0.60;0.52;;;21.00;61.30;;;;;;5072599;28;20098;-63
2023/07/21 07:31:31;;;;;;;0.47;0.43;;;20.90;60.40;;;;;;5067231;28;20029;-62
2023/07/21 07:33:57;;;;;;;0.40;0.40;;;20.90;60.70;;;;;;5074940;28;20020;-62
2023/07/21 07:36:23;;;;;;;1.15;0.88;;;20.90;60.70;;;;;;5078020;28;20024;-62
2023/07/21 07:38:49;;;;;;;0.85;0.40;;;21.00;60.00;;;;;;5067771;28;20025;-62
2023/07/21 07:41:14;;;;;;;0.57;0.57;;;21.00;60.20;;;;;;5071646;28;20146;-62
2023/07/21 07:43:40;;;;;;;0.50;0.50;;;21.10;60.00;;;;;;5068106;28;20593;-59
2023/07/21 07:46:07;;;;;;;4.95;0.75;;;21.40;60.00;;;;;;5071549;28;20068;-60
2023/07/21 07:48:34;;;;;;;0.52;0.52;;;21.50;59.80;;;;;;5072418;28;20052;-59
2023/07/21 07:51:02;;;;;;;0.63;0.50;;;21.70;58.50;;;;;;5083873;28;20223;-58
2023/07/21 07:53:28;;;;;;;0.88;0.63;;;21.70;58.50;;;;;;5063227;28;20095;-59
2023/07/21 07:55:54;;;;;;;1.17;0.43;;;21.80;58.70;;;;;;5073383;28;20028;-59
2023/07/21 07:58:20;;;;;;;0.40;0.40;;;21.90;58.50;;;;;;5072370;28;20036;-59
2023/07/21 08:00:47;;;;;;;0.60;0.60;;;21.90;57.50;;;;;;5074988;28;20047;-59
2023/07/21 08:03:14;;;;;;;0.40;0.30;;;21.90;57.20;;;;;;5082787;28;20127;-59
2023/07/21 08:05:41;;;;;;;0.30;0.30;;;21.90;57.50;;;;;;5075080;28;20479;-59
2023/07/21 08:08:08;;;;;;;0.63;0.40;;;22.00;57.70;;;;;;5061056;28;20108;-59
2023/07/21 08:10:34;;;;;;;0.35;0.35;;;22.00;57.20;;;;;;5077383;28;20119;-64
2023/07/21 08:13:02;;;;;;;0.50;0.50;;;22.10;57.40;;;;;;5075890;28;20443;-59
2023/07/21 08:15:29;;;;;;;1.15;0.40;;;22.10;57.20;;;;;;5071535;28;20027;-64
2023/07/21 08:17:54;;;;;;;0.50;0.45;;;22.10;57.50;;;;;;5079230;28;20053;-59
2023/07/21 08:20:21;;;;;;;0.63;0.60;;;22.10;57.40;;;;;;5080627;28;20024;-59
2023/07/21 08:22:47;;;;;;;0.60;0.60;;;22.20;57.10;;;;;;5075646;28;20025;-56
2023/07/21 08:25:13;;;;;;;0.47;0.47;;;22.10;55.60;;;;;;5069667;28;20032;-57
2023/07/21 08:27:39;;;;;;;0.65;0.60;;;22.00;56.20;;;;;;5072200;28;20025;-59
2023/07/21 08:30:08;;;;;;;1.92;0.55;;;21.90;56.60;;;;;;5068118;28;20045;-60
2023/07/21 08:32:35;;;;;;;0.50;0.50;;;22.00;56.60;;;;;;5074344;28;20041;-59
2023/07/21 08:35:00;;;;;;;0.50;0.50;;;22.00;56.60;;;;;;5077272;28;20039;-59
2023/07/21 08:37:26;;;;;;;0.40;0.40;;;22.00;56.60;;;;;;5074264;28;20390;-59
2023/07/21 08:39:52;;;;;;;0.70;0.70;;;22.10;56.70;;;;;;5078166;28;20036;-62
2023/07/21 08:42:17;;;;;;;1.75;0.70;;;22.20;56.00;;;;;;5072786;28;20426;-62
2023/07/21 08:44:44;;;;;;;0.45;0.45;;;22.10;56.30;;;;;;5074631;28;20023;-59
2023/07/21 08:47:10;;;;;;;0.38;0.38;;;22.10;56.40;;;;;;5075220;28;20039;-60
2023/07/21 08:49:38;;;;;;;0.82;0.40;;;22.10;55.70;;;;;;5075837;28;20044;-62
2023/07/21 08:52:04;;;;;;;0.30;0.30;;;22.10;55.50;;;;;;5063450;28;20033;-62
2023/07/21 08:54:30;;;;;;;0.52;0.52;;;22.20;55.50;;;;;;5069294;28;20741;-61
2023/07/21 08:56:55;;;;;;;1.58;0.80;;;22.20;55.00;;;;;;5080989;28;20036;-61
2023/07/21 08:59:21;;;;;;;0.70;0.70;;;22.20;54.80;;;;;;5084014;28;20066;-59
2023/07/21 09:01:47;;;;;;;0.30;0.30;;;22.30;54.80;;;;;;5070164;28;20040;-59
2023/07/21 09:04:23;;;;;;;0.90;0.60;;;22.40;54.90;;;;;;5074015;28;20043;-59
2023/07/21 09:06:57;;;;;;;0.40;0.40;;;22.40;54.90;;;;;;5076560;28;20490;-60
2023/07/21 09:09:26;;;;;;;0.30;0.30;;;22.50;55.10;;;;;;5070814;28;20037;-59
2023/07/21 09:12:07;;;;;;;0.40;0.40;;;22.60;54.50;;;;;;5074962;28;20448;-59
2023/07/21 09:14:39;;;;;;;0.50;0.50;;;22.70;53.80;;;;;;5070858;28;20037;-59
2023/07/21 09:17:06;;;;;;;0.43;0.43;;;22.80;53.80;;;;;;5075942;28;20044;-59
2023/07/21 09:19:36;;;;;;;0.50;0.50;;;22.90;53.80;;;;;;5067588;28;20102;-59
2023/07/21 09:22:02;;;;;;;1.73;0.60;;;23.00;53.30;;;;;;5071140;28;20117;-59
2023/07/21 09:24:28;;;;;;;0.47;0.47;;;23.00;53.20;;;;;;5074288;28;20024;-59
2023/07/21 09:27:11;;;;;;;0.75;0.70;;;23.10;53.50;;;;;;5075985;28;20031;-59
2023/07/21 09:29:37;;;;;;;0.30;0.30;;;23.20;53.10;;;;;;5066966;28;20106;-60
2023/07/21 09:32:14;;;;;;;0.68;0.68;;;23.20;52.90;;;;;;5076422;28;20032;-59
2023/07/21 09:34:54;;;;;;;0.80;0.70;;;23.20;51.50;;;;;;5073784;28;20024;-59
2023/07/21 09:37:20;;;;;;;0.80;0.60;;;23.10;50.90;;;;;;5072458;28;20025;-59
2023/07/21 09:39:52;;;;;;;3.05;0.60;;;23.20;51.70;;;;;;5078331;28;20491;-59
2023/07/21 09:42:19;;;;;;;0.50;0.50;;;23.30;51.60;;;;;;5072987;28;20426;-59
2023/07/21 09:44:47;;;;;;;0.60;0.60;;;23.40;50.60;;;;;;5075496;28;20039;-59
2023/07/21 09:47:16;;;;;;;0.55;0.40;;;23.50;50.70;;;;;;5072752;28;20494;-58
2023/07/21 09:49:41;;;;;;;0.52;0.40;;;23.60;50.00;;;;;;5069301;28;20119;-58
2023/07/21 09:52:11;;;;;;;0.52;0.50;;;23.70;50.30;;;;;;5070218;28;20574;-58
2023/07/21 09:54:41;;;;;;;0.60;0.55;;;24.00;49.60;;;;;;5068073;28;20074;-59
2023/07/21 09:57:09;;;;;;;0.52;0.52;;;24.10;49.20;;;;;;5072531;28;20047;-61
2023/07/21 09:59:39;;;;;;;1.02;0.73;;;24.30;49.00;;;;;;5078527;28;20037;-61
2023/07/21 10:02:07;;;;;;;0.47;0.40;;;24.50;48.40;;;;;;5071279;28;20036;-61
2023/07/21 10:04:34;;;;;;;0.63;0.40;;;24.70;48.20;;;;;;5059491;28;20522;-61
2023/07/21 10:07:05;;;;;;;0.60;0.60;;;25.00;47.40;;;;;;5057629;28;20039;-61
2023/07/21 10:09:32;;;;;;;0.57;0.57;;;25.10;46.80;;;;;;5058900;28;20486;-61
2023/07/21 10:12:16;;;;;;;0.80;0.80;;;25.10;46.20;;;;;;5078558;28;20032;-61
2023/07/21 10:14:42;;;;;;;0.77;0.60;;;25.00;46.70;;;;;;5069434;28;20434;-61
2023/07/21 10:17:08;;;;;;;1.17;0.98;;;24.90;46.50;;;;;;5063350;28;20040;-62
2023/07/21 10:19:42;;;;;;;0.60;0.60;;;24.90;46.80;;;;;;5070477;28;20405;-61
2023/07/21 10:22:25;;;;;;;0.80;0.70;;;24.90;47.00;;;;;;5069067;28;20060;-61
2023/07/21 10:24:51;;;;;;;0.55;0.50;;;25.00;47.10;;;;;;5074835;28;20020;-62
2023/07/21 10:27:22;;;;;;;0.43;0.43;;;25.10;47.20;;;;;;5074252;28;20479;-61
2023/07/21 10:29:51;;;;;;;0.75;0.50;;;25.00;46.60;;;;;;5065021;28;20036;-63
2023/07/21 10:32:22;;;;;;;0.43;0.43;;;24.90;47.10;;;;;;5069455;28;20081;-61
2023/07/21 10:34:51;;;;;;;0.47;0.47;;;24.70;47.50;;;;;;5075307;28;20047;-61
2023/07/21 10:37:17;;;;;;;2.05;0.60;;;24.60;47.90;;;;;;5068873;28;20165;-60
2023/07/21 10:39:53;;;;;;;0.40;0.40;;;24.50;47.90;;;;;;5074384;28;20477;-61
2023/07/21 10:42:19;;;;;;;0.45;0.40;;;24.40;48.30;;;;;;5065554;28;20063;-61
2023/07/21 10:44:47;;;;;;;1.08;0.70;;;24.40;48.50;;;;;;5073409;28;20039;-61
2023/07/21 10:47:15;;;;;;;0.45;0.45;;;24.40;48.60;;;;;;5062069;28;20109;-61
2023/07/21 10:49:42;;;;;;;0.50;0.50;;;24.40;48.80;;;;;;5073777;28;20035;-61
2023/07/21 10:52:08;;;;;;;0.40;0.40;;;24.40;48.40;;;;;;5068432;28;20021;-61
2023/07/21 10:54:35;;;;;;;0.50;0.47;;;24.40;48.00;;;;;;5073688;28;20027;-60
2023/07/21 10:57:02;;;;;;;0.73;0.60;;;24.30;47.20;;;;;;5064502;28;20016;-60
2023/07/21 10:59:34;;;;;;;0.57;0.55;;;24.20;47.50;;;;;;5070414;28;20481;-60
2023/07/21 11:02:08;;;;;;;0.60;0.60;;;24.20;47.10;;;;;;5066366;28;20055;-60
2023/07/21 11:04:33;;;;;;;0.80;0.80;;;24.10;46.50;;;;;;5071745;28;20024;-61
2023/07/21 11:07:00;;;;;;;0.40;0.40;;;24.00;47.30;;;;;;5068293;28;20120;-61
2023/07/21 11:09:33;;;;;;;0.75;0.55;;;24.10;47.90;;;;;;5074914;28;20094;-61
2023/07/21 11:11:59;;;;;;;0.50;0.50;;;24.40;48.00;;;;;;5068525;28;20028;-62
2023/07/21 11:14:27;;;;;;;1.45;0.88;;;24.80;47.90;;;;;;5068639;28;20099;-62
2023/07/21 11:16:59;;;;;;;0.60;0.60;;;25.10;47.10;;;;;;5063658;28;20424;-62
2023/07/21 11:19:26;;;;;;;;;;;25.30;46.90;;;;;;5070785;28;20028;-60
2023/07/21 11:21:52;;;;;;;0.60;0.60;;;25.50;46.20;;;;;;5064486;28;20006;-60
2023/07/21 11:24:23;;;;;;;1.10;0.93;;;25.70;46.30;;;;;;5067338;28;20071;-59
2023/07/21 11:26:49;;;;;;;1.05;0.70;;;25.90;46.30;;;;;;5074287;28;20048;-60
2023/07/21 11:29:16;;;;;;;0.68;0.60;;;26.10;46.40;;;;;;5073501;28;20034;-59
2023/07/21 11:31:43;;;;;;;0.40;0.38;;;26.30;45.20;;;;;;5074540;28;20484;-60
2023/07/21 11:34:26;;;;;;;0.50;0.50;;;26.30;40.40;;;;;;5072918;28;20020;-57
2023/07/21 11:36:59;;;;;;;0.52;0.52;;;26.20;41.10;;;;;;5075377;28;20060;-57
2023/07/21 11:39:30;;;;;;;0.50;0.50;;;26.20;41.20;;;;;;5067978;28;20029;-58
2023/07/21 11:41:57;;;;;;;0.80;0.80;;;26.30;41.40;;;;;;5078770;28;20031;-58
2023/07/21 11:44:28;;;;;;;0.43;0.43;;;26.30;41.50;;;;;;5071540;28;20403;-58
2023/07/21 11:47:05;;;;;;;3.58;0.60;;;26.40;42.60;;;;;;5068598;28;20029;-58
2023/07/21 11:49:36;;;;;;;0.50;0.50;;;26.80;42.80;;;;;;5073808;28;20056;-58
2023/07/21 11:52:03;;;;;;;0.40;0.40;;;27.00;41.60;;;;;;5076321;28;20501;-60
2023/07/21 11:54:35;;;;;;;0.60;0.50;;;27.00;42.10;;;;;;5073446;28;20027;-58
2023/07/21 11:57:01;;;;;;;0.40;0.40;;;26.90;42.30;;;;;;5066838;28;20098;-58
2023/07/21 11:59:28;;;;;;;0.60;0.60;;;26.80;42.60;;;;;;5074422;28;20024;-60
2023/07/21 12:01:55;;;;;;;0.55;0.52;;;26.50;42.20;;;;;;5070835;28;20028;-58
2023/07/21 12:04:22;;;;;;;0.57;0.57;;;26.30;42.70;;;;;;5069703;28;20112;-58
2023/07/21 12:06:48;;;;;;;0.52;0.52;;;26.20;43.20;;;;;;5071110;28;20032;-60
2023/07/21 12:09:16;;;;;;;0.50;0.50;;;26.10;43.20;;;;;;5063909;28;20043;-60
2023/07/21 12:11:42;;;;;;;1.52;0.80;;;26.20;43.70;;;;;;5069912;28;20063;-58
2023/07/21 12:14:08;;;;;;;0.68;0.68;;;26.30;43.30;;;;;;5074248;28;20548;-60
2023/07/21 12:16:35;;;;;;;1.20;1.10;;;26.20;43.30;;;;;;5068845;28;20123;-58
2023/07/21 12:19:04;;;;;;;1.02;0.60;;;25.90;43.30;;;;;;5074680;28;20029;-60
2023/07/21 12:21:31;;;;;;;0.75;0.63;;;25.80;43.80;;;;;;5076887;28;20496;-58
2023/07/21 12:23:57;;;;;;;0.82;0.82;;;25.80;44.00;;;;;;5070865;28;20132;-60
2023/07/21 12:26:23;;;;;;;0.70;0.68;;;25.80;44.10;;;;;;5074656;28;20532;-58
2023/07/21 12:28:50;;;;;;;0.50;0.50;;;25.60;44.10;;;;;;5069624;28;20045;-60
2023/07/21 12:31:16;;;;;;;0.80;0.70;;;25.40;44.50;;;;;;5070625;28;20062;-58
2023/07/21 12:33:44;;;;;;;1.42;1.33;;;25.30;44.90;;;;;;5065928;28;20052;-60
2023/07/21 12:36:16;;;;;;;0.70;0.70;;;25.20;44.60;;;;;;5076801;28;20063;-60
2023/07/21 12:38:43;;;;;;;0.65;0.60;;;25.10;45.00;;;;;;5070075;28;20036;-58
2023/07/21 12:41:09;;;;;;;0.75;0.75;;;25.00;45.00;;;;;;5073604;28;20052;-58
2023/07/21 12:43:36;;;;;;;0.88;0.80;;;24.90;45.30;;;;;;5070524;28;20123;-58
2023/07/21 12:46:02;;;;;;;0.52;0.52;;;24.80;45.60;;;;;;5080125;28;20099;-60
2023/07/21 12:48:30;;;;;;;1.90;0.50;;;24.70;45.70;;;;;;5067554;28;20389;-60